Flight Track Log - Related Links

Times and Time Zones

All times are in EDT time to prevent confusion due to time zone crossing. See the EJA583 flight status page for this flight to view local times or setup timezone preferences in your user account.

Time Position Orientation Groundspeed Altitude Reporting Facility
EDT Latitude Longitude Course Direction KTS MPH feet Rate Location/Type
Sat 06:24:17 PM 42.2658 -71.9042 263° West 150 173 3,400  Level Boston Center
Sat 06:24:38 PM 42.2639 -71.9267 263° West 153 176 4,400 2,964 Climbing Boston Center
Sat 06:25:40 PM 42.2642 -71.9911 270° West 230 265 7,500 3,148 Climbing Boston Center
Sat 06:26:40 PM 42.2497 -72.1008 260° West 255 293 10,800 2,975 Climbing Boston Center
Sat 06:27:41 PM 42.2356 -72.1933 258° West 278 320 13,500 2,579 Climbing Boston Center
Sat 06:28:41 PM 42.2211 -72.3083 260° West 284 327 16,000 1,261 Climbing Boston Center
Sat 06:29:40 PM 42.2044 -72.4150 258° West 318 366 16,000  Level Boston Center
Sat 06:30:40 PM 42.1856 -72.5494 259° West 332 382 16,000  Level Boston Center
Sat 06:31:41 PM 42.1522 -72.6444 245° Southwest 332 382 16,000  Level Boston Center
Sat 06:32:41 PM 42.1144 -72.7536 245° Southwest 327 376 16,000  Level Boston Center
Sat 06:33:39 PM 42.0703 -72.8708 243° Southwest 322 371 16,000  Level Boston Center
Sat 06:34:40 PM 42.0344 -72.9683 244° Southwest 322 371 16,000 -545 Level Boston Center
Sat 06:35:40 PM 41.9900 -73.0853 243° Southwest 315 362 14,900 -1,050 Descending Boston Center
Sat 06:36:40 PM 41.9519 -73.1883 244° Southwest 324 373 13,900 -1,091 Descending Boston Center
Sat 06:37:41 PM 41.9072 -73.3075 243° Southwest 324 373 12,700 -966 Descending Boston Center
Sat 06:38:38 PM 41.8647 -73.4242 244° Southwest 338 389 12,000 -458 Descending Boston Center
Sat 06:39:39 PM 41.8264 -73.5183 241° Southwest 338 389 11,800 -645 Descending Boston Center
Sat 06:40:39 PM 41.7731 -73.6314 238° Southwest 333 383 10,700 -885 Descending Boston Center
Sat 06:41:41 PM 41.7347 -73.7169 239° Southwest 317 365 10,000 -344 Descending Boston Center
Sat 06:42:41 PM 41.6833 -73.8217 237° Southwest 311 358 10,000  Level Boston Center
Sat 06:43:41 PM 41.6425 -73.9125 239° Southwest 316 364 10,000 -254 Level Boston Center
Sat 06:44:39 PM 41.5911 -74.0167 237° Southwest 311 358 9,500 -779 Descending Boston Center
Sat 06:46:15 PM 41.5333 -74.1500 240° Southwest 257 296 8,000 -577 Descending New York TRACON
Sat 06:47:15 PM 41.5000 -74.2333 242° Southwest 263 303 8,000 -400 Level New York TRACON
Sat 06:48:15 PM 41.4500 -74.3167 231° Southwest 269 310 7,200 -650 Descending New York TRACON
Sat 06:49:15 PM 41.3833 -74.3500 201° Southwest 261 300 6,700 -750 Descending New York TRACON
Sat 06:50:15 PM 41.3167 -74.3500 180° South 261 300 5,700 -857 Descending New York TRACON
Sat 06:51:21 PM 41.2333 -74.3667 189° South 254 292 4,900 -857 Descending New York TRACON
Sat 06:52:21 PM 41.1667 -74.3667 180° South 262 302 3,900 -950 Descending New York TRACON
Sat 06:53:21 PM 41.1000 -74.3833 191° South 268 308 3,000 -450 Descending New York TRACON
Sat 06:54:21 PM 41.0167 -74.3833 180° South 246 283 3,000  Level New York TRACON
Sat 06:55:21 PM 40.9500 -74.3833 180° South 266 306 3,000  Level New York TRACON
Sat 06:56:21 PM 40.8833 -74.3500 159° South 270 311 3,000 -105 Level New York TRACON
Sat 06:57:15 PM 40.8333 -74.3000 143° Southeast 269 310 2,800 -526 Descending New York TRACON
Sat 06:58:15 PM 40.7667 -74.2500 150° Southeast 238 274 2,000 -429 Descending New York TRACON
Sat 06:59:21 PM 40.7667 -74.1833 90° East 191 220 1,900 -333 Descending New York TRACON
Sat 07:00:21 PM 40.8000 -74.1333 49° Northeast 158 182 1,300 -700 Descending New York TRACON
Sat 07:01:21 PM 40.8333 -74.1000 37° Northeast 132 152 500 -800 Descending New York TRACON
Sat 07:03:00 PM 40.8501 -74.0608 50° Northeast  Level Estimated
Sat 07:10:00 PM 40.8501 -74.0608 50° Northeast  Level Estimated
Sat 07:11:00 PM 40.8501 -74.0608 50° Northeast  Level Estimated

Login

Don't have an account? Register now (free) for customized features, flight alerts, and more!